AirNav   Everest Fuels
 
 539 users online  

WN44 Podeweltz Airport
Merrill, Wisconsin, USA

GOING TO MERRILL?


FAA INFORMATION EFFECTIVE 08 OCTOBER 2020

Location

FAA Identifier: WN44
Lat/Long: 45-14-21.8730N 089-34-08.4430W
45-14.364550N 089-34.140717W
45.2394092,-89.5690119
(estimated)
Elevation: 1470 ft. / 448 m (estimated)
Variation: 00E (1985)
From city: 6 miles NE of MERRILL, WI
Time zone: UTC -5 (UTC -6 during Standard Time)
Zip code: 54452

Airport Operations

Airport use: Private use. Permission required prior to landing
Activation date: 11/1988
Control tower: no
ARTCC: MINNEAPOLIS CENTER
FSS: GREEN BAY FLIGHT SERVICE STATION
Attendance: UNATNDD
Wind indicator: yes
Segmented circle: no

Airport Communications

WX AWOS-3 at RRL (7 nm W): 119.925 (715-539-8422)
WX AWOS-3 at TKV (17 nm NW): 118.250 (715-453-5716)
WX ASOS at AUW (19 nm S): 125.925 (715-843-7215)

Nearby radio navigation aids

VOR radial/distance  VOR name  Freq  Var
AUWr360/23.6WAUSAU VOR/DME111.6002E
RHIr189/24.1RHINELANDER VOR/DME109.2002E

Airport Services

Parking: tiedowns
Airframe service: NONE
Powerplant service: NONE

Runway Information

Runway 18/36

Dimensions: 2200 x 80 ft. / 671 x 24 m
Surface: turf
Runway edge markings: 18/36 END MARKERS AND 16 INCH CONES 200' APART; LIGHTED ON REQUEST 715-536-6791.
RUNWAY 18  RUNWAY 36
Traffic pattern: leftleft
Markings: NSTDNSTD

Airport Ownership and Management from official FAA records

Ownership: Privately-owned
Owner: DANA PODEWELTZ
W2810 HWY C
MERRILL, WI 54452
Phone 715-536-6791
Manager: DANA PODEWELTZ
W2810 HWY C
MERRILL, WI 54452
Phone 715-536-6791

Airport Operational Statistics

Aircraft based on the field: 2
Single engine airplanes: 2
    
Aircraft operations: 200/year *
50% transient general aviation
50% local general aviation
* for 12-month period ending 22 July 2020

Additional Remarks

FOR CD CTC MINNEAPOLIS ARTCC AT 651-463-5588.

Instrument Procedures

There are no published instrument procedures at WN44.

Some nearby airports with instrument procedures:

KRRL - Merrill Municipal Airport (7 nm W)
KTKV - Tomahawk Regional Airport (17 nm NW)
KAUW - Wausau Downtown Airport (19 nm S)
KAIG - Langlade County Airport (20 nm E)
KRHI - Rhinelander-Oneida County Airport (24 nm N)
 
Loc | Ops | Rwys | IFR | FBO | Links
Com | Nav | Svcs | Stats | Notes
Area around WN44 (Podeweltz Airport)
 
Road maps at: MapQuest Bing Google
 
Aerial photo
No photo
 
Sectional chart

 
Airport distance calculator
Flying to Podeweltz Airport? Find the distance to fly.

From to WN44

Sunrise and sunset
Times for 24-Oct-2020
 Local
(UTC-5)
 Zulu
(UTC)
Morning civil twilight06:5811:58
Sunrise07:2912:29
Sunset17:5622:56
Evening civil twilight18:2623:26

Current date and time
Zulu (UTC)  24-Oct-2020 11:18:46
Local (UTC-5)  24-Oct-2020 06:18:46
 
METAR
KRRL 
7nm W 
241055Z AUTO 28005KT 10SM OVC044 M01/M05 A3024 RMK AO2 T10111047 TSNO
KTKV 
17nm NW 
241055Z AUTO 29005KT 10SM BKN015 OVC022 M02/M05 A3025 RMK AO2 T10251046 PWINO
KAUW 
18nm S 
241054Z AUTO 24005KT 10SM OVC041 M01/M02 A3025 RMK AO2 SLP263 T10111022 $
TAF
KAUW 
18nm S 
241019Z 2410/2506 24006KT P6SM SCT018 BKN040 FM241600 30006KT P6SM SCT030 BKN050 FM242300 VRB03KT P6SM SCT040 OVC100
NOTAMs
Click for the latest NOTAMs
NOTAMs are issued by the DoD/FAA and will open in a separate window not controlled by AirNav.

 

 
 

Would you like to see your business listed on this page?

 If your business provides an interesting product or service to pilots, flight crews, aircraft, or users of the Podeweltz Airport, you should consider listing it here.  To start the listing process, click on the button below
 
Add a business
 

Other Pages about Podeweltz Airport

Update a link
 
Copyright © AirNav, LLC. All rights reserved. Privacy Policy  Contact